Time;durP1;ratioP1;P1;durP2;ratioP2;P2;SDS_P1;SDS_P2;PMS_P1;PMS_P2;Temp;Humidity;BMP_temperature;BMP_pressure;BME280_temperature;BME280_humidity;BME280_pressure;Samples;Min_cycle;Max_cycle;Signal;HPM_P1;HPM_P2
2023/10/23 00:01:05;;;;;;;32.05;14.70;;;;;;;;;;5093530;28;20048;-70
2023/10/23 00:03:31;;;;;;;40.40;14.77;;;;;;;;;;5075399;28;20055;-71
2023/10/23 00:05:57;;;;;;;35.83;15.45;;;;;;;;;;5093600;28;20380;-70
2023/10/23 00:08:23;;;;;;;35.08;14.95;;;;;;;;;;5093425;28;20048;-70
2023/10/23 00:10:49;;;;;;;37.60;15.35;;;;;;;;;;5094103;28;20051;-71
2023/10/23 00:13:15;;;;;;;40.67;15.73;;;;;;;;;;5094166;28;20047;-72
2023/10/23 00:15:42;;;;;;;35.38;14.75;;;;;;;;;;5093290;28;20044;-73
2023/10/23 00:18:08;;;;;;;34.67;15.45;;;;;;;;;;5093224;28;20044;-71
2023/10/23 00:20:34;;;;;;;36.10;14.95;;;;;;;;;;5075546;28;20139;-71
2023/10/23 00:23:00;;;;;;;33.35;14.50;;;;;;;;;;5092926;28;20484;-71
2023/10/23 00:25:26;;;;;;;38.45;16.55;;;;;;;;;;5076138;28;20416;-71
2023/10/23 00:27:52;;;;;;;35.97;14.82;;;;;;;;;;5093630;28;20401;-71
2023/10/23 00:30:18;;;;;;;38.20;15.00;;;;;;;;;;5058531;28;20047;-71
2023/10/23 00:32:45;;;;;;;34.42;14.35;;;;;;;;;;5075400;28;20058;-72
2023/10/23 00:35:11;;;;;;;32.10;14.52;;;;;;;;;;5076024;28;20086;-71
2023/10/23 00:37:37;;;;;;;36.40;15.65;;;;;;;;;;5079310;28;20051;-71
2023/10/23 00:40:03;;;;;;;36.35;14.32;;;;;;;;;;5079160;28;20096;-73
2023/10/23 00:42:29;;;;;;;38.63;15.97;;;;;;;;;;5097269;28;20044;-71
2023/10/23 00:44:55;;;;;;;34.05;14.43;;;;;;;;;;5097175;28;20093;-72
2023/10/23 00:47:22;;;;;;;43.15;15.60;;;;;;;;;;5097987;28;20063;-71
2023/10/23 00:49:48;;;;;;;35.95;14.85;;;;;;;;;;5097142;28;20044;-71
2023/10/23 00:52:15;;;;;;;43.13;16.25;;;;;;;;;;5079101;28;20048;-71
2023/10/23 00:54:41;;;;;;;44.05;16.20;;;;;;;;;;5097095;28;20058;-71
2023/10/23 00:57:07;;;;;;;40.38;15.02;;;;;;;;;;5078437;28;20047;-71
2023/10/23 00:59:34;;;;;;;38.75;14.70;;;;;;;;;;5079390;28;20152;-72
2023/10/23 01:02:00;;;;;;;37.70;15.25;;;;;;;;;;5097280;28;20357;-71
2023/10/23 01:04:27;;;;;;;39.33;15.97;;;;;;;;;;5078987;28;20109;-73
2023/10/23 01:06:53;;;;;;;33.10;14.02;;;;;;;;;;5062465;28;20101;-72
2023/10/23 01:09:19;;;;;;;35.67;14.55;;;;;;;;;;5096781;28;20123;-70
2023/10/23 01:11:45;;;;;;;34.05;14.73;;;;;;;;;;5096688;28;20044;-71
2023/10/23 01:14:11;;;;;;;38.35;14.77;;;;;;;;;;5078717;28;20044;-70
2023/10/23 01:16:37;;;;;;;37.45;14.35;;;;;;;;;;5078391;28;20040;-71
2023/10/23 01:19:04;;;;;;;36.60;14.27;;;;;;;;;;5096606;28;20070;-71
2023/10/23 01:21:30;;;;;;;;;;;;;;;;;;5096982;28;20051;-71
2023/10/23 01:23:58;;;;;;;34.28;13.80;;;;;;;;;;5078558;28;20070;-71
2023/10/23 01:26:24;;;;;;;34.95;14.00;;;;;;;;;;5096538;28;20161;-71
2023/10/23 01:28:50;;;;;;;32.60;13.68;;;;;;;;;;5061979;28;20047;-71
2023/10/23 01:31:17;;;;;;;41.63;15.05;;;;;;;;;;5078424;28;20131;-71
2023/10/23 01:33:43;;;;;;;35.45;13.55;;;;;;;;;;5078664;28;20186;-71
2023/10/23 01:36:09;;;;;;;32.55;14.52;;;;;;;;;;5044828;28;20040;-70
2023/10/23 01:38:35;;;;;;;35.63;15.35;;;;;;;;;;5097082;28;20375;-70
2023/10/23 01:41:01;;;;;;;37.30;14.90;;;;;;;;;;5078168;28;20054;-71
2023/10/23 01:43:27;;;;;;;39.05;16.15;;;;;;;;;;5078182;28;20551;-72
2023/10/23 01:45:53;;;;;;;37.30;16.02;;;;;;;;;;5079007;28;20431;-71
2023/10/23 01:48:19;;;;;;;36.35;14.73;;;;;;;;;;5096126;28;20109;-71
2023/10/23 01:50:45;;;;;;;37.45;15.02;;;;;;;;;;5078078;28;20050;-71
2023/10/23 01:53:11;;;;;;;40.47;15.20;;;;;;;;;;5078316;28;20036;-71
2023/10/23 01:55:37;;;;;;;35.97;14.57;;;;;;;;;;5096512;28;20036;-71
2023/10/23 01:58:03;;;;;;;36.90;13.90;;;;;;;;;;5095868;28;20392;-70
2023/10/23 02:00:29;;;;;;;36.40;13.18;;;;;;;;;;5078035;28;20093;-71
2023/10/23 02:02:55;;;;;;;34.45;14.68;;;;;;;;;;5077918;28;20093;-71
2023/10/23 02:05:22;;;;;;;35.20;13.85;;;;;;;;;;5061252;28;20499;-70
2023/10/23 02:07:48;;;;;;;36.80;15.45;;;;;;;;;;5061333;28;20089;-71
2023/10/23 02:10:14;;;;;;;36.08;14.52;;;;;;;;;;5077766;28;20039;-71
2023/10/23 02:12:40;;;;;;;34.78;13.93;;;;;;;;;;5095833;28;20128;-71
2023/10/23 02:15:09;;;;;;;36.53;14.23;;;;;;;;;;5077700;28;20051;-71
2023/10/23 02:17:35;;;;;;;29.58;13.32;;;;;;;;;;5095629;28;20097;-71
2023/10/23 02:20:01;;;;;;;35.55;13.73;;;;;;;;;;5077805;28;20474;-71
2023/10/23 02:22:27;;;;;;;44.10;15.88;;;;;;;;;;5077654;28;20044;-70
2023/10/23 02:24:53;;;;;;;33.35;14.45;;;;;;;;;;5077501;28;20048;-71
2023/10/23 02:27:19;;;;;;;36.67;14.85;;;;;;;;;;5095287;28;20050;-70
2023/10/23 02:29:46;;;;;;;32.25;13.38;;;;;;;;;;5060938;28;20042;-70
2023/10/23 02:32:12;;;;;;;37.80;14.70;;;;;;;;;;5095188;28;20385;-71
2023/10/23 02:34:38;;;;;;;35.60;14.88;;;;;;;;;;5077127;28;20060;-70
2023/10/23 02:37:04;;;;;;;34.47;14.25;;;;;;;;;;5095033;28;20036;-71
2023/10/23 02:39:30;;;;;;;41.42;15.60;;;;;;;;;;5077337;28;20048;-69
2023/10/23 02:41:56;;;;;;;33.38;14.60;;;;;;;;;;5095179;28;20047;-71
2023/10/23 02:44:22;;;;;;;32.15;14.32;;;;;;;;;;5077205;28;20048;-70
2023/10/23 02:46:48;;;;;;;38.53;14.23;;;;;;;;;;5077826;28;20043;-70
2023/10/23 02:49:14;;;;;;;40.75;14.68;;;;;;;;;;5095636;28;20130;-70
2023/10/23 02:51:40;;;;;;;32.25;13.20;;;;;;;;;;5094970;28;20079;-70
2023/10/23 02:54:06;;;;;;;36.00;13.82;;;;;;;;;;5076850;28;20047;-74
2023/10/23 02:56:33;;;;;;;38.00;14.27;;;;;;;;;;5060437;28;20044;-71
2023/10/23 02:58:59;;;;;;;36.42;15.02;;;;;;;;;;5093981;28;20134;-71
2023/10/23 03:01:25;;;;;;;37.10;14.80;;;;;;;;;;5094612;28;20193;-71
2023/10/23 03:03:51;;;;;;;35.65;14.77;;;;;;;;;;5094569;28;20400;-72
2023/10/23 03:06:18;;;;;;;37.85;13.68;;;;;;;;;;5076695;28;20051;-71
2023/10/23 03:08:44;;;;;;;38.22;15.05;;;;;;;;;;5060303;28;20131;-71
2023/10/23 03:11:11;;;;;;;41.85;15.32;;;;;;;;;;5094080;28;20515;-70
2023/10/23 03:13:37;;;;;;;;;;;;;;;;;;5094953;28;20123;-72
2023/10/23 03:16:03;;;;;;;42.33;15.07;;;;;;;;;;5076136;28;20019;-70
2023/10/23 03:18:29;;;;;;;43.50;16.27;;;;;;;;;;5094595;28;20448;-71
2023/10/23 03:21:03;;;;;;;36.67;13.38;;;;;;;;;;5077157;28;20055;-71
2023/10/23 03:23:30;;;;;;;35.65;14.25;;;;;;;;;;5094332;28;20101;-71
2023/10/23 03:25:56;;;;;;;37.90;14.65;;;;;;;;;;5076198;28;20083;-71
2023/10/23 03:28:22;;;;;;;41.63;15.25;;;;;;;;;;5059393;28;20423;-71
2023/10/23 03:30:48;;;;;;;38.78;14.75;;;;;;;;;;5075906;28;20047;-71
2023/10/23 03:33:15;;;;;;;40.20;15.75;;;;;;;;;;5075921;28;20076;-71
2023/10/23 03:35:44;;;;;;;41.83;15.27;;;;;;;;;;5076117;28;20086;-71
2023/10/23 03:38:10;;;;;;;39.60;15.20;;;;;;;;;;5076946;28;20384;-71
2023/10/23 03:40:36;;;;;;;38.80;15.40;;;;;;;;;;5076379;28;20058;-72
2023/10/23 03:43:02;;;;;;;47.60;15.00;;;;;;;;;;5093894;28;20479;-71
2023/10/23 03:45:28;;;;;;;36.53;14.52;;;;;;;;;;5075966;28;20079;-70
2023/10/23 03:47:54;;;;;;;39.45;15.00;;;;;;;;;;5075694;28;20055;-70
2023/10/23 03:50:20;;;;;;;38.45;14.02;;;;;;;;;;5075566;28;20044;-71
2023/10/23 03:52:46;;;;;;;37.03;15.00;;;;;;;;;;5093741;28;20090;-72
2023/10/23 03:55:13;;;;;;;43.28;15.50;;;;;;;;;;5075643;28;20141;-70
2023/10/23 03:57:39;;;;;;;36.72;14.85;;;;;;;;;;5075831;28;20052;-71
2023/10/23 04:00:05;;;;;;;41.40;15.80;;;;;;;;;;5076440;28;20392;-70
2023/10/23 04:02:31;;;;;;;35.63;13.35;;;;;;;;;;5076372;28;20048;-72
2023/10/23 04:04:58;;;;;;;37.50;14.82;;;;;;;;;;5075448;28;20538;-71
2023/10/23 04:07:24;;;;;;;41.08;14.60;;;;;;;;;;5094108;28;20040;-72
2023/10/23 04:09:50;;;;;;;40.70;14.85;;;;;;;;;;5074460;28;20050;-70
2023/10/23 04:12:16;;;;;;;40.25;15.20;;;;;;;;;;5058874;28;20051;-71
2023/10/23 04:14:45;;;;;;;42.35;15.15;;;;;;;;;;5075317;28;20081;-70
2023/10/23 04:17:12;;;;;;;42.28;14.95;;;;;;;;;;5092967;28;20044;-71
2023/10/23 04:19:39;;;;;;;39.50;15.27;;;;;;;;;;5059407;28;20055;-71
2023/10/23 04:22:05;;;;;;;41.30;14.68;;;;;;;;;;5075565;28;20397;-71
2023/10/23 04:24:31;;;;;;;35.42;14.10;;;;;;;;;;5058920;28;20408;-71
2023/10/23 04:26:57;;;;;;;38.78;14.63;;;;;;;;;;5093164;28;20119;-71
2023/10/23 04:29:23;;;;;;;40.25;15.90;;;;;;;;;;5075112;28;20044;-71
2023/10/23 04:31:49;;;;;;;43.45;16.27;;;;;;;;;;5042185;28;20074;-71
2023/10/23 04:34:15;;;;;;;37.20;15.07;;;;;;;;;;5076103;28;20040;-72
2023/10/23 04:36:41;;;;;;;39.50;15.05;;;;;;;;;;5058331;28;20047;-71
2023/10/23 04:39:07;;;;;;;43.80;15.65;;;;;;;;;;5093252;28;20052;-71
2023/10/23 04:41:33;;;;;;;45.22;15.60;;;;;;;;;;5059370;28;20494;-71
2023/10/23 04:43:59;;;;;;;43.00;15.30;;;;;;;;;;5093089;28;20044;-72
2023/10/23 04:46:25;;;;;;;44.30;16.27;;;;;;;;;;5075218;28;20075;-71
2023/10/23 04:48:51;;;;;;;42.50;14.85;;;;;;;;;;5093081;28;20391;-72
2023/10/23 04:51:17;;;;;;;40.42;14.90;;;;;;;;;;5075031;28;20048;-71
2023/10/23 04:53:44;;;;;;;43.85;15.88;;;;;;;;;;5075159;28;20047;-71
2023/10/23 04:56:10;;;;;;;46.20;17.00;;;;;;;;;;5075022;28;20039;-71
2023/10/23 04:58:36;;;;;;;49.15;17.48;;;;;;;;;;5092743;28;20227;-71
2023/10/23 05:01:02;;;;;;;49.95;17.17;;;;;;;;;;5092909;28;20063;-71
2023/10/23 05:03:29;;;;;;;42.53;15.85;;;;;;;;;;5075273;28;20048;-71
2023/10/23 05:05:55;;;;;;;48.05;16.90;;;;;;;;;;5058358;28;20044;-71
2023/10/23 05:08:22;;;;;;;46.85;16.08;;;;;;;;;;5092785;28;20044;-72
2023/10/23 05:10:48;;;;;;;46.20;16.45;;;;;;;;;;5092686;28;20086;-73
2023/10/23 05:13:14;;;;;;;48.78;16.55;;;;;;;;;;5075262;28;20092;-71
2023/10/23 05:15:40;;;;;;;55.65;16.83;;;;;;;;;;5092686;28;20044;-72
2023/10/23 05:18:07;;;;;;;46.42;16.45;;;;;;;;;;5093498;28;20040;-73
2023/10/23 05:20:34;;;;;;;50.00;17.83;;;;;;;;;;5092609;28;20048;-72
2023/10/23 05:23:02;;;;;;;46.45;16.10;;;;;;;;;;5079152;28;20439;-71
2023/10/23 05:25:28;;;;;;;61.67;17.27;;;;;;;;;;5096583;28;20044;-72
2023/10/23 05:27:54;;;;;;;44.60;16.90;;;;;;;;;;5062105;28;20350;-71
2023/10/23 05:30:20;;;;;;;52.60;18.88;;;;;;;;;;5078570;28;20055;-72
2023/10/23 05:32:46;;;;;;;57.63;17.33;;;;;;;;;;5079006;28;20048;-71
2023/10/23 05:35:12;;;;;;;52.92;17.73;;;;;;;;;;5078754;28;20043;-72
2023/10/23 05:37:38;;;;;;;52.75;18.15;;;;;;;;;;5078223;28;20467;-71
2023/10/23 05:40:05;;;;;;;59.08;18.45;;;;;;;;;;5077871;28;20047;-72
2023/10/23 05:42:31;;;;;;;49.70;17.40;;;;;;;;;;5078748;28;20555;-71
2023/10/23 05:44:57;;;;;;;56.35;18.92;;;;;;;;;;5061826;28;20384;-71
2023/10/23 05:47:25;;;;;;;53.50;17.75;;;;;;;;;;5078182;28;20048;-71
2023/10/23 05:49:52;;;;;;;55.85;18.48;;;;;;;;;;5061578;28;20100;-71
2023/10/23 05:52:18;;;;;;;57.80;17.35;;;;;;;;;;5077810;28;20052;-72
2023/10/23 05:54:44;;;;;;;61.08;18.88;;;;;;;;;;5096484;28;20490;-70
2023/10/23 05:57:10;;;;;;;63.25;19.85;;;;;;;;;;5078069;28;20131;-71
2023/10/23 05:59:37;;;;;;;59.00;18.42;;;;;;;;;;5077972;28;20052;-71
2023/10/23 06:02:03;;;;;;;60.40;19.30;;;;;;;;;;5096591;28;20043;-70
2023/10/23 06:04:29;;;;;;;56.63;17.52;;;;;;;;;;5096421;28;20051;-71
2023/10/23 06:06:55;;;;;;;58.17;18.73;;;;;;;;;;5062033;28;20052;-70
2023/10/23 06:09:21;;;;;;;67.45;19.98;;;;;;;;;;5077756;28;20089;-72
2023/10/23 06:11:47;;;;;;;62.35;21.05;;;;;;;;;;5077789;28;20040;-72
2023/10/23 06:14:13;;;;;;;65.57;20.70;;;;;;;;;;5078529;28;20135;-72
2023/10/23 06:16:40;;;;;;;60.72;19.67;;;;;;;;;;5077335;28;20093;-71
2023/10/23 06:19:06;;;;;;;63.88;20.48;;;;;;;;;;5077444;28;20044;-71
2023/10/23 06:21:32;;;;;;;63.95;19.90;;;;;;;;;;5043919;28;20091;-71
2023/10/23 06:23:58;;;;;;;62.38;20.27;;;;;;;;;;5095399;28;20074;-71
2023/10/23 06:26:24;;;;;;;67.70;18.97;;;;;;;;;;5060763;28;20040;-71
2023/10/23 06:28:51;;;;;;;60.13;19.43;;;;;;;;;;5060731;28;20058;-71
2023/10/23 06:31:17;;;;;;;62.67;20.85;;;;;;;;;;5095249;28;20055;-72
2023/10/23 06:33:43;;;;;;;67.13;20.27;;;;;;;;;;5076070;28;20050;-72
2023/10/23 06:36:09;;;;;;;61.85;18.77;;;;;;;;;;5060710;28;20036;-71
2023/10/23 06:38:36;;;;;;;67.68;19.75;;;;;;;;;;5043843;28;20438;-73
2023/10/23 06:41:06;;;;;;;74.43;21.35;;;;;;;;;;5077366;28;20048;-72
2023/10/23 06:43:32;;;;;;;90.75;23.15;;;;;;;;;;5077170;28;20100;-72
2023/10/23 06:45:59;;;;;;;63.38;21.25;;;;;;;;;;5060354;28;20090;-71
2023/10/23 06:48:25;;;;;;;135.60;75.20;;;;;;;;;;5060590;28;20040;-72
2023/10/23 06:50:51;;;;;;;66.38;22.42;;;;;;;;;;5095674;28;20044;-73
2023/10/23 06:53:17;;;;;;;67.60;19.48;;;;;;;;;;5076440;28;20044;-71
2023/10/23 06:55:50;;;;;;;57.77;18.67;;;;;;;;;;5076963;28;20040;-72
2023/10/23 06:58:16;;;;;;;61.95;19.38;;;;;;;;;;5094914;28;20293;-71
2023/10/23 07:00:42;;;;;;;68.03;22.23;;;;;;;;;;5094768;28;20056;-72
2023/10/23 07:03:08;;;;;;;64.35;20.58;;;;;;;;;;5077076;28;20079;-72
2023/10/23 07:05:34;;;;;;;71.55;20.73;;;;;;;;;;5060456;28;20475;-71
2023/10/23 07:08:01;;;;;;;61.95;20.65;;;;;;;;;;5076768;28;20109;-72
2023/10/23 07:10:27;;;;;;;63.67;20.30;;;;;;;;;;5060526;28;20051;-71
2023/10/23 07:12:55;;;;;;;75.22;23.90;;;;;;;;;;5094644;28;20052;-71
2023/10/23 07:15:21;;;;;;;66.88;20.65;;;;;;;;;;5076962;28;20040;-72
2023/10/23 07:17:47;;;;;;;64.18;22.23;;;;;;;;;;5076268;28;20048;-71
2023/10/23 07:20:16;;;;;;;67.03;21.13;;;;;;;;;;5076537;28;20096;-70
2023/10/23 07:22:43;;;;;;;75.53;24.23;;;;;;;;;;5060608;28;20129;-71
2023/10/23 07:25:09;;;;;;;83.97;28.52;;;;;;;;;;5077211;28;20095;-72
2023/10/23 07:27:35;;;;;;;78.07;24.40;;;;;;;;;;5099244;28;20058;-72
2023/10/23 07:30:03;;;;;;;84.10;24.35;;;;;;;;;;5094889;28;20052;-72
2023/10/23 07:32:29;;;;;;;124.55;27.15;;;;;;;;;;5076654;28;20047;-71
2023/10/23 07:34:56;;;;;;;114.28;26.33;;;;;;;;;;5060103;28;20094;-69
2023/10/23 07:37:22;;;;;;;115.83;24.63;;;;;;;;;;5076325;28;20048;-71
2023/10/23 07:39:49;;;;;;;135.02;28.35;;;;;;;;;;5094524;28;20044;-71
2023/10/23 07:42:15;;;;;;;172.18;30.20;;;;;;;;;;5076702;28;20054;-70
2023/10/23 07:44:44;;;;;;;179.63;29.85;;;;;;;;;;5078513;28;20048;-72
2023/10/23 07:47:11;;;;;;;274.50;31.00;;;;;;;;;;5095906;28;20040;-72
2023/10/23 07:49:37;;;;;;;239.77;28.73;;;;;;;;;;5095740;28;20052;-70
2023/10/23 07:52:03;;;;;;;228.45;31.75;;;;;;;;;;5077383;28;20053;-72
2023/10/23 07:54:33;;;;;;;199.88;28.13;;;;;;;;;;5077367;28;20059;-70
2023/10/23 07:56:59;;;;;;;278.10;31.38;;;;;;;;;;5095198;28;20044;-72
2023/10/23 07:59:26;;;;;;;287.02;30.02;;;;;;;;;;5076677;28;20141;-71
2023/10/23 08:01:52;;;;;;;312.20;32.95;;;;;;;;;;5076727;28;20051;-72
2023/10/23 08:04:18;;;;;;;332.70;34.67;;;;;;;;;;5094651;28;20070;-71
2023/10/23 08:06:45;;;;;;;554.20;42.33;;;;;;;;;;5093781;28;20044;-71
2023/10/23 08:09:11;;;;;;;259.17;29.35;;;;;;;;;;5075547;28;20127;-71
2023/10/23 08:11:37;;;;;;;298.50;28.25;;;;;;;;;;5075535;28;20044;-71
2023/10/23 08:14:09;;;;;;;311.63;28.77;;;;;;;;;;5060179;28;20090;-71
2023/10/23 08:16:36;;;;;;;417.38;37.05;;;;;;;;;;5075158;28;20040;-71
2023/10/23 08:19:02;;;;;;;192.88;22.70;;;;;;;;;;5093251;28;20381;-71
2023/10/23 08:21:28;;;;;;;194.60;25.13;;;;;;;;;;5058764;28;20070;-72
2023/10/23 08:23:55;;;;;;;174.60;23.17;;;;;;;;;;5075162;28;20071;-71
2023/10/23 08:26:22;;;;;;;187.95;24.10;;;;;;;;;;5075423;28;20094;-71
2023/10/23 08:28:48;;;;;;;160.07;22.35;;;;;;;;;;5058418;28;20100;-71
2023/10/23 08:31:14;;;;;;;172.45;23.40;;;;;;;;;;5075915;28;20036;-71
2023/10/23 08:33:40;;;;;;;155.82;21.45;;;;;;;;;;5075232;28;20048;-71
2023/10/23 08:36:06;;;;;;;162.83;25.87;;;;;;;;;;5093208;28;20570;-72
2023/10/23 08:38:33;;;;;;;148.00;21.85;;;;;;;;;;5093177;28;20289;-71
2023/10/23 08:41:02;;;;;;;;;;;;;;;;;;5075785;28;20048;-70
2023/10/23 08:43:29;;;;;;;114.20;19.48;;;;;;;;;;5058946;28;19927;-71
2023/10/23 08:45:55;;;;;;;153.73;22.55;;;;;;;;;;5058772;28;20155;-71
2023/10/23 08:48:21;;;;;;;89.13;17.95;;;;;;;;;;5075181;28;20167;-70
2023/10/23 08:50:48;;;;;;;88.05;15.88;;;;;;;;;;5075710;28;20052;-71
2023/10/23 08:53:15;;;;;;;96.95;18.10;;;;;;;;;;5041724;28;20507;-71
2023/10/23 08:55:42;;;;;;;115.43;19.23;;;;;;;;;;5059317;28;20039;-71
2023/10/23 08:58:08;;;;;;;;;;;;;;;;;;5079936;28;20384;-70
2023/10/23 09:00:35;;;;;;;128.27;18.27;;;;;;;;;;5079057;28;19942;-72
2023/10/23 09:03:01;;;;;;;107.85;19.52;;;;;;;;;;5078993;28;20047;-71
2023/10/23 09:05:27;;;;;;;111.40;19.98;;;;;;;;;;5078976;28;20086;-71
2023/10/23 09:07:53;;;;;;;147.07;21.38;;;;;;;;;;5078854;28;20062;-71
2023/10/23 09:10:19;;;;;;;103.35;19.17;;;;;;;;;;5096880;28;20056;-72
2023/10/23 09:12:45;;;;;;;119.88;20.88;;;;;;;;;;5097279;28;20040;-71
2023/10/23 09:15:14;;;;;;;124.13;19.42;;;;;;;;;;5045553;28;20156;-70
2023/10/23 09:17:41;;;;;;;125.80;18.70;;;;;;;;;;5096992;28;20051;-69
2023/10/23 09:20:18;;;;;;;105.22;16.25;;;;;;;;;;5062181;28;20087;-70
2023/10/23 09:22:47;;;;;;;90.10;16.15;;;;;;;;;;5061850;28;20048;-71
2023/10/23 09:25:17;;;;;;;89.30;18.73;;;;;;;;;;5079185;28;20384;-70
2023/10/23 09:27:44;;;;;;;72.93;18.95;;;;;;;;;;5061969;28;20479;-71
2023/10/23 09:30:10;;;;;;;64.85;19.63;;;;;;;;;;5096385;28;20052;-72
2023/10/23 09:32:37;;;;;;;68.23;19.43;;;;;;;;;;5078536;28;20075;-70
2023/10/23 09:35:04;;;;;;;61.78;20.02;;;;;;;;;;5096417;28;20274;-72
2023/10/23 09:37:30;;;;;;;64.55;21.02;;;;;;;;;;5062293;28;20093;-71
2023/10/23 09:40:08;;;;;;;79.17;26.53;;;;;;;;;;5096033;28;20046;-71
2023/10/23 09:42:34;;;;;;;67.70;22.88;;;;;;;;;;5078320;28;20036;-70
2023/10/23 09:45:02;;;;;;;79.57;25.60;;;;;;;;;;5079045;28;20044;-71
2023/10/23 09:47:29;;;;;;;73.43;27.38;;;;;;;;;;5045972;28;20047;-70
2023/10/23 09:49:55;;;;;;;;;;;;;;;;;;5096947;28;20052;-72
2023/10/23 09:52:24;;;;;;;67.28;24.48;;;;;;;;;;5096798;28;19972;-70
2023/10/23 09:54:51;;;;;;;57.85;23.17;;;;;;;;;;5062554;28;20055;-71
2023/10/23 09:57:18;;;;;;;62.50;24.70;;;;;;;;;;5078598;28;20044;-71
2023/10/23 09:59:49;;;;;;;61.63;23.27;;;;;;;;;;5061524;28;20286;-70
2023/10/23 10:02:18;;;;;;;63.50;24.17;;;;;;;;;;5095818;28;20044;-71
2023/10/23 10:04:50;;;;;;;63.03;24.83;;;;;;;;;;5061350;28;20101;-70
2023/10/23 10:07:27;;;;;;;66.90;25.85;;;;;;;;;;5076774;28;20507;-72
2023/10/23 10:09:53;;;;;;;58.28;25.17;;;;;;;;;;5061490;28;20071;-71
2023/10/23 10:12:20;;;;;;;64.97;25.98;;;;;;;;;;5077611;28;20044;-71
2023/10/23 10:14:46;;;;;;;70.95;27.63;;;;;;;;;;5078237;28;20048;-71
2023/10/23 10:17:13;;;;;;;71.30;27.02;;;;;;;;;;5095607;28;20047;-73
2023/10/23 10:19:40;;;;;;;60.60;26.30;;;;;;;;;;5095769;28;20040;-71
2023/10/23 10:22:14;;;;;;;56.92;25.65;;;;;;;;;;5095661;28;20052;-71
2023/10/23 10:24:41;;;;;;;61.45;25.58;;;;;;;;;;5077975;28;20423;-71
2023/10/23 10:27:07;;;;;;;56.63;23.23;;;;;;;;;;5095507;28;20140;-70
2023/10/23 10:29:33;;;;;;;50.27;20.83;;;;;;;;;;5077572;28;20056;-70
2023/10/23 10:32:05;;;;;;;50.63;20.92;;;;;;;;;;5060802;28;20044;-72
2023/10/23 10:34:35;;;;;;;42.40;19.42;;;;;;;;;;5077556;28;20059;-71
2023/10/23 10:37:04;;;;;;;44.00;18.95;;;;;;;;;;5061108;28;20552;-70
2023/10/23 10:39:50;;;;;;;40.00;18.25;;;;;;;;;;5095318;28;20101;-71
2023/10/23 10:42:20;;;;;;;37.38;17.10;;;;;;;;;;5095224;28;20052;-70
2023/10/23 10:44:53;;;;;;;37.25;16.92;;;;;;;;;;5095303;28;20048;-71
2023/10/23 10:47:19;;;;;;;37.80;16.70;;;;;;;;;;5095372;28;20040;-71
2023/10/23 10:49:49;;;;;;;34.13;15.07;;;;;;;;;;5095442;28;20127;-72
2023/10/23 10:52:30;;;;;;;32.83;15.95;;;;;;;;;;5043896;28;20051;-72
2023/10/23 10:54:56;;;;;;;35.30;15.85;;;;;;;;;;5043631;28;20044;-71
2023/10/23 10:57:22;;;;;;;33.70;15.17;;;;;;;;;;5094485;28;20458;-72
2023/10/23 10:59:54;;;;;;;35.97;15.33;;;;;;;;;;5060666;28;20392;-71
2023/10/23 11:02:20;;;;;;;36.08;15.35;;;;;;;;;;5060438;28;20192;-70
2023/10/23 11:04:47;;;;;;;32.38;15.20;;;;;;;;;;5095009;28;20050;-71
2023/10/23 11:07:13;;;;;;;31.23;14.43;;;;;;;;;;5076511;28;20488;-71
2023/10/23 11:09:41;;;;;;;33.45;16.17;;;;;;;;;;5094524;28;20046;-71
2023/10/23 11:12:07;;;;;;;32.55;15.10;;;;;;;;;;5044193;28;20097;-71
2023/10/23 11:14:33;;;;;;;31.75;15.35;;;;;;;;;;5059936;28;20395;-71
2023/10/23 11:17:00;;;;;;;30.50;15.55;;;;;;;;;;5059765;28;20044;-71
2023/10/23 11:19:26;;;;;;;30.03;14.17;;;;;;;;;;5060117;28;20117;-72
2023/10/23 11:22:06;;;;;;;30.02;15.10;;;;;;;;;;5060124;28;20646;-72
2023/10/23 11:24:32;;;;;;;31.52;13.88;;;;;;;;;;5076149;28;20131;-72
2023/10/23 11:26:58;;;;;;;31.17;14.50;;;;;;;;;;5076540;28;20438;-71
2023/10/23 11:29:24;;;;;;;30.52;14.05;;;;;;;;;;5076600;28;20048;-72
2023/10/23 11:31:52;;;;;;;32.05;14.05;;;;;;;;;;5094168;28;20112;-71
2023/10/23 11:34:19;;;;;;;29.60;14.48;;;;;;;;;;5076276;28;20055;-71
2023/10/23 11:36:49;;;;;;;33.22;16.92;;;;;;;;;;5075859;28;20502;-71
2023/10/23 11:39:18;;;;;;;32.35;15.98;;;;;;;;;;5059813;28;20063;-72
2023/10/23 11:41:57;;;;;;;29.88;14.32;;;;;;;;;;5077118;28;20047;-71
2023/10/23 11:44:24;;;;;;;30.35;14.35;;;;;;;;;;5076695;28;20052;-72
2023/10/23 11:46:50;;;;;;;28.92;14.05;;;;;;;;;;5094125;28;20041;-72
2023/10/23 11:49:19;;;;;;;29.20;13.23;;;;;;;;;;5094106;28;20438;-71
2023/10/23 11:51:46;;;;;;;31.50;14.43;;;;;;;;;;5059154;28;20048;-70
2023/10/23 11:54:12;;;;;;;31.13;14.23;;;;;;;;;;5059802;28;20142;-72
2023/10/23 11:56:38;;;;;;;32.97;14.13;;;;;;;;;;5075809;28;20040;-70
2023/10/23 11:59:05;;;;;;;27.80;13.55;;;;;;;;;;5075839;28;20078;-71
2023/10/23 12:01:32;;;;;;;27.00;12.80;;;;;;;;;;5093649;28;20047;-71
2023/10/23 12:03:58;;;;;;;27.38;12.90;;;;;;;;;;5094189;28;20128;-71
2023/10/23 12:06:24;;;;;;;27.73;12.73;;;;;;;;;;5058889;28;20052;-74
2023/10/23 12:08:50;;;;;;;25.83;13.15;;;;;;;;;;5093571;28;20055;-72
2023/10/23 12:11:18;;;;;;;27.95;13.05;;;;;;;;;;5094307;28;20109;-71
2023/10/23 12:13:44;;;;;;;28.98;13.13;;;;;;;;;;5059478;28;20040;-71
2023/10/23 12:16:10;;;;;;;27.80;13.07;;;;;;;;;;5094683;28;20104;-72
2023/10/23 12:18:36;;;;;;;24.73;12.60;;;;;;;;;;5075887;28;20499;-71
2023/10/23 12:21:05;;;;;;;27.02;13.30;;;;;;;;;;5059208;28;20673;-71
2023/10/23 12:23:32;;;;;;;26.30;12.45;;;;;;;;;;5059515;28;20482;-70
2023/10/23 12:25:58;;;;;;;26.10;12.73;;;;;;;;;;5093432;28;20040;-71
2023/10/23 12:28:24;;;;;;;28.15;13.52;;;;;;;;;;5093925;28;20135;-71
2023/10/23 12:30:50;;;;;;;27.75;12.98;;;;;;;;;;5074471;28;20047;-71
2023/10/23 12:33:16;;;;;;;28.48;13.45;;;;;;;;;;5093183;28;20044;-71
2023/10/23 12:35:42;;;;;;;25.92;13.18;;;;;;;;;;5093601;28;20417;-71
2023/10/23 12:38:10;;;;;;;28.80;13.18;;;;;;;;;;5058518;28;20048;-71
2023/10/23 12:40:38;;;;;;;30.98;15.02;;;;;;;;;;5076074;28;20074;-72
2023/10/23 12:43:05;;;;;;;33.33;15.00;;;;;;;;;;5093445;28;20097;-71
2023/10/23 12:45:31;;;;;;;34.50;15.60;;;;;;;;;;5093613;28;20574;-72
2023/10/23 12:47:57;;;;;;;32.20;15.87;;;;;;;;;;5075438;28;20047;-71
2023/10/23 12:50:23;;;;;;;37.10;16.77;;;;;;;;;;5075476;28;20054;-71
2023/10/23 12:52:49;;;;;;;37.28;16.02;;;;;;;;;;5094012;28;20044;-72
2023/10/23 12:55:16;;;;;;;32.85;16.35;;;;;;;;;;5075459;28;20056;-71
2023/10/23 12:57:42;;;;;;;29.70;14.68;;;;;;;;;;5075335;28;20358;-71
2023/10/23 13:00:08;;;;;;;30.45;15.27;;;;;;;;;;5093201;28;20044;-70
2023/10/23 13:02:34;;;;;;;30.35;14.85;;;;;;;;;;5074990;28;20074;-70
2023/10/23 13:05:02;;;;;;;33.13;14.73;;;;;;;;;;5074995;28;20116;-70
2023/10/23 13:07:28;;;;;;;37.95;14.88;;;;;;;;;;5058905;28;20048;-69
2023/10/23 13:09:54;;;;;;;31.45;14.70;;;;;;;;;;5092976;28;20052;-70
2023/10/23 13:12:20;;;;;;;30.45;15.52;;;;;;;;;;5093221;28;20059;-72
2023/10/23 13:14:46;;;;;;;32.90;16.20;;;;;;;;;;5058582;28;20131;-71
2023/10/23 13:17:13;;;;;;;34.28;17.35;;;;;;;;;;5058792;28;20047;-70
2023/10/23 13:19:39;;;;;;;38.78;18.35;;;;;;;;;;5075407;28;20480;-73
2023/10/23 13:22:05;;;;;;;37.20;17.70;;;;;;;;;;5094036;28;20050;-71
2023/10/23 13:24:31;;;;;;;39.42;19.25;;;;;;;;;;5093656;28;20056;-72
2023/10/23 13:26:57;;;;;;;43.93;19.83;;;;;;;;;;5059865;28;20139;-72
2023/10/23 13:29:24;;;;;;;42.95;20.35;;;;;;;;;;5059004;28;20047;-72
2023/10/23 13:31:50;;;;;;;40.47;19.17;;;;;;;;;;5092978;28;20146;-72
2023/10/23 13:34:16;;;;;;;50.07;21.03;;;;;;;;;;5092736;28;20127;-70
2023/10/23 13:36:42;;;;;;;46.67;20.43;;;;;;;;;;5058127;28;20075;-70
2023/10/23 13:39:08;;;;;;;46.88;20.35;;;;;;;;;;5058875;28;20048;-71
2023/10/23 13:41:34;;;;;;;43.88;21.13;;;;;;;;;;5074910;28;20096;-73
2023/10/23 13:44:01;;;;;;;39.67;19.03;;;;;;;;;;5078688;28;20044;-70
2023/10/23 13:46:27;;;;;;;40.17;18.20;;;;;;;;;;5078449;28;20433;-71
2023/10/23 13:48:53;;;;;;;41.17;18.73;;;;;;;;;;5096278;28;20047;-70
2023/10/23 13:51:19;;;;;;;42.40;17.63;;;;;;;;;;5096368;28;20052;-72
2023/10/23 13:53:45;;;;;;;41.20;17.85;;;;;;;;;;5078027;28;20044;-71
2023/10/23 13:56:11;;;;;;;42.13;17.27;;;;;;;;;;5077893;28;20433;-71
2023/10/23 13:58:38;;;;;;;41.67;17.13;;;;;;;;;;5077815;28;20082;-72
2023/10/23 14:01:04;;;;;;;41.80;17.77;;;;;;;;;;5096603;28;20286;-72
2023/10/23 14:03:30;;;;;;;37.33;17.20;;;;;;;;;;5061136;28;20290;-71
2023/10/23 14:05:56;;;;;;;38.22;16.55;;;;;;;;;;5078355;28;20502;-72
2023/10/23 14:08:22;;;;;;;44.23;17.80;;;;;;;;;;5061762;28;20058;-71
2023/10/23 14:10:48;;;;;;;39.53;17.75;;;;;;;;;;5078267;28;20093;-72
2023/10/23 14:13:14;;;;;;;41.97;17.20;;;;;;;;;;5097200;28;20048;-71